createdAt,value
2022-08-26T00:01:53.978Z,9.63
2022-08-26T00:04:24.929Z,9.30
2022-08-26T00:06:54.119Z,9.07
2022-08-26T00:09:21.890Z,9.17
2022-08-26T00:11:49.202Z,9.17
2022-08-26T00:14:17.839Z,9.77
2022-08-26T00:16:47.864Z,8.23
2022-08-26T00:19:19.918Z,9.20
2022-08-26T00:21:49.610Z,8.90
2022-08-26T00:24:18.663Z,8.57
2022-08-26T00:26:46.302Z,9.43
2022-08-26T00:29:16.272Z,8.97
2022-08-26T00:31:45.046Z,9.30
2022-08-26T00:34:12.289Z,8.23
2022-08-26T00:36:39.659Z,8.90
2022-08-26T00:39:09.118Z,9.37
2022-08-26T00:41:39.719Z,9.03
2022-08-26T00:44:07.927Z,9.87
2022-08-26T00:46:46.604Z,9.10
2022-08-26T00:49:27.564Z,9.13
2022-08-26T00:52:00.802Z,9.43
2022-08-26T00:54:33.721Z,9.57
2022-08-26T00:57:16.410Z,8.77
2022-08-26T00:59:49.174Z,9.20
2022-08-26T01:02:21.166Z,9.90
2022-08-26T01:04:56.425Z,8.70
2022-08-26T01:07:31.183Z,9.00
2022-08-26T01:10:06.197Z,10.03
2022-08-26T01:12:42.382Z,8.87
2022-08-26T01:15:17.955Z,9.83
2022-08-26T01:17:45.027Z,9.57
2022-08-26T01:21:12.304Z,9.40
2022-08-26T01:23:49.977Z,9.87
2022-08-26T01:26:22.931Z,9.47
2022-08-26T01:28:55.785Z,9.47
2022-08-26T01:31:29.958Z,9.40
2022-08-26T01:34:21.684Z,9.47
2022-08-26T01:36:51.819Z,10.23
2022-08-26T01:39:19.527Z,10.43
2022-08-26T01:41:47.434Z,9.77
2022-08-26T01:44:26.768Z,8.93
2022-08-26T01:46:57.424Z,9.93
2022-08-26T01:49:26.559Z,10.07
2022-08-26T01:51:57.445Z,9.27
2022-08-26T01:54:26.070Z,10.03
2022-08-26T01:56:54.412Z,10.00
2022-08-26T01:59:24.768Z,8.50
2022-08-26T02:01:52.817Z,9.53
2022-08-26T02:04:28.677Z,9.80
2022-08-26T02:06:57.389Z,10.00
2022-08-26T02:09:26.539Z,9.73
2022-08-26T02:11:54.935Z,10.10
2022-08-26T02:14:44.448Z,9.80
2022-08-26T02:17:12.212Z,9.70
2022-08-26T02:19:45.072Z,10.03
2022-08-26T02:22:18.950Z,9.70
2022-08-26T02:24:55.772Z,9.83
2022-08-26T02:27:35.226Z,10.10
2022-08-26T02:30:17.653Z,9.50
2022-08-26T02:32:45.033Z,10.33
2022-08-26T02:35:20.063Z,9.43
2022-08-26T02:37:49.504Z,9.17
2022-08-26T02:40:23.237Z,8.97
2022-08-26T02:42:52.998Z,8.80
2022-08-26T02:45:23.756Z,9.33
2022-08-26T02:47:52.383Z,9.57
2022-08-26T02:50:20.386Z,9.73
2022-08-26T02:52:48.299Z,9.77
2022-08-26T02:55:15.779Z,9.17
2022-08-26T02:57:42.990Z,10.27
2022-08-26T03:00:14.560Z,9.87
2022-08-26T03:02:41.911Z,9.07
2022-08-26T03:05:11.563Z,9.47
2022-08-26T03:07:38.566Z,9.87
2022-08-26T03:10:08.514Z,9.87
2022-08-26T03:12:36.043Z,9.37
2022-08-26T03:15:17.799Z,9.43
2022-08-26T03:17:49.071Z,9.57
2022-08-26T03:20:18.575Z,9.97
2022-08-26T03:22:45.956Z,9.37
2022-08-26T03:25:16.546Z,9.67
2022-08-26T03:27:44.150Z,9.77
2022-08-26T03:30:33.547Z,10.17
2022-08-26T03:33:01.724Z,10.10
2022-08-26T03:35:30.062Z,9.33
2022-08-26T03:37:57.030Z,9.83
2022-08-26T03:40:24.799Z,9.80
2022-08-26T03:42:55.901Z,9.17
2022-08-26T03:45:22.810Z,9.97
2022-08-26T03:47:49.620Z,9.30
2022-08-26T03:50:22.997Z,8.93
2022-08-26T03:52:54.537Z,10.10
2022-08-26T03:55:27.263Z,9.13
2022-08-26T03:57:54.249Z,9.70
2022-08-26T04:00:22.335Z,8.80
2022-08-26T04:02:51.146Z,9.13
2022-08-26T04:05:22.931Z,9.23
2022-08-26T04:07:50.974Z,8.70
2022-08-26T04:10:29.104Z,9.63
2022-08-26T04:12:59.204Z,9.40
2022-08-26T04:15:27.098Z,9.10
2022-08-26T04:17:54.365Z,9.83
2022-08-26T04:20:22.771Z,9.97
2022-08-26T04:22:50.704Z,10.23
2022-08-26T04:25:18.489Z,10.10
2022-08-26T04:27:45.235Z,9.90
2022-08-26T04:30:15.172Z,9.50
2022-08-26T04:32:43.928Z,9.87
2022-08-26T04:35:10.916Z,10.10
2022-08-26T04:37:37.790Z,10.17
2022-08-26T04:40:06.450Z,9.30
2022-08-26T04:42:33.656Z,10.10
2022-08-26T04:45:01.735Z,9.87
2022-08-26T04:47:32.805Z,9.87
2022-08-26T04:50:00.271Z,9.07
2022-08-26T04:52:28.938Z,9.30
2022-08-26T04:54:55.666Z,9.87
2022-08-26T04:57:23.235Z,9.00
2022-08-26T04:59:49.980Z,8.93
2022-08-26T05:02:16.825Z,9.40
2022-08-26T05:04:43.745Z,9.27
2022-08-26T05:07:11.083Z,8.77
2022-08-26T05:09:40.466Z,8.77
2022-08-26T05:12:07.894Z,8.50
2022-08-26T05:14:36.555Z,8.83
2022-08-26T05:17:03.799Z,9.60
2022-08-26T05:19:32.711Z,8.77
2022-08-26T05:21:59.652Z,9.00
2022-08-26T05:24:26.489Z,8.87
2022-08-26T05:26:54.254Z,8.73
2022-08-26T05:29:24.917Z,8.70
2022-08-26T05:31:52.957Z,9.63
2022-08-26T05:34:23.191Z,8.77
2022-08-26T05:36:52.625Z,8.90
2022-08-26T05:39:21.276Z,8.57
2022-08-26T05:41:48.046Z,8.87
2022-08-26T05:44:18.752Z,9.00
2022-08-26T05:46:46.147Z,8.90
2022-08-26T05:49:16.144Z,8.63
2022-08-26T05:51:47.507Z,8.60
2022-08-26T05:54:21.845Z,8.77
2022-08-26T05:56:51.345Z,8.47
2022-08-26T05:59:24.179Z,8.47
2022-08-26T06:01:54.504Z,8.60
2022-08-26T06:04:22.660Z,8.13
2022-08-26T06:06:51.713Z,7.60
2022-08-26T06:09:18.619Z,8.57
2022-08-26T06:11:45.625Z,8.57
2022-08-26T06:14:12.694Z,7.93
2022-08-26T06:16:43.723Z,8.60
2022-08-26T06:19:15.478Z,7.40
2022-08-26T06:21:54.004Z,7.87
2022-08-26T06:24:40.390Z,7.53
2022-08-26T06:27:09.904Z,7.77
2022-08-26T06:29:38.704Z,8.00
2022-08-26T06:32:06.747Z,8.20
2022-08-26T06:34:34.057Z,7.90
2022-08-26T06:37:06.428Z,7.80
2022-08-26T06:39:34.029Z,7.70
2022-08-26T06:42:03.177Z,7.40
2022-08-26T06:44:33.093Z,7.27
2022-08-26T06:47:00.911Z,7.27
2022-08-26T06:49:27.903Z,6.53
2022-08-26T06:52:00.826Z,6.10
2022-08-26T06:54:31.379Z,6.00
2022-08-26T06:56:58.373Z,6.20
2022-08-26T06:59:25.743Z,6.10
2022-08-26T07:01:53.365Z,5.77
2022-08-26T07:04:23.026Z,5.23
2022-08-26T07:06:53.602Z,5.07
2022-08-26T07:09:23.273Z,5.27
2022-08-26T07:11:51.531Z,4.90
2022-08-26T07:14:21.145Z,4.73
2022-08-26T07:16:51.833Z,4.70
2022-08-26T07:19:29.908Z,4.00
2022-08-26T07:22:03.926Z,4.53
2022-08-26T07:24:35.089Z,4.50
2022-08-26T07:27:06.220Z,4.70
2022-08-26T07:29:35.482Z,4.93
2022-08-26T07:32:03.668Z,5.53
2022-08-26T07:34:32.233Z,6.97
2022-08-26T07:37:01.248Z,6.97
2022-08-26T07:39:31.528Z,6.67
2022-08-26T07:42:01.391Z,6.93
2022-08-26T07:44:30.670Z,6.43
2022-08-26T07:46:57.514Z,6.30
2022-08-26T07:49:26.867Z,6.13
2022-08-26T07:51:55.478Z,6.47
2022-08-26T07:54:27.128Z,5.87
2022-08-26T07:56:55.906Z,5.20
2022-08-26T07:59:23.692Z,6.17
2022-08-26T08:01:51.053Z,7.87
2022-08-26T08:04:21.909Z,8.97
2022-08-26T08:06:53.759Z,10.07
2022-08-26T08:09:22.313Z,9.80
2022-08-26T08:11:49.953Z,9.73
2022-08-26T08:14:22.150Z,8.40
2022-08-26T08:16:50.980Z,8.40
2022-08-26T08:19:21.303Z,8.40
2022-08-26T08:21:49.301Z,7.50
2022-08-26T08:24:16.282Z,8.73
2022-08-26T08:26:43.306Z,9.13
2022-08-26T08:29:10.122Z,8.37
2022-08-26T08:34:27.873Z,7.47
2022-08-26T08:36:55.746Z,6.87
2022-08-26T08:39:23.512Z,9.20
2022-08-26T08:42:27.462Z,9.23
2022-08-26T08:45:01.923Z,8.67
2022-08-26T08:47:42.777Z,8.77
2022-08-26T08:50:25.468Z,8.50
2022-08-26T08:53:23.108Z,8.23
2022-08-26T08:56:24.300Z,9.50
2022-08-26T08:59:19.515Z,8.20
2022-08-26T09:02:20.992Z,7.93
2022-08-26T09:05:05.358Z,8.10
2022-08-26T09:07:48.963Z,7.70
2022-08-26T09:10:29.182Z,8.07
2022-08-26T09:12:56.563Z,7.83
2022-08-26T09:15:36.204Z,8.37
2022-08-26T09:18:18.822Z,7.93
2022-08-26T09:21:13.605Z,7.60
2022-08-26T09:23:42.955Z,7.47
2022-08-26T09:26:30.701Z,7.70
2022-08-26T09:29:18.007Z,8.00
2022-08-26T09:31:45.699Z,6.87
2022-08-26T09:34:19.263Z,7.30
2022-08-26T09:36:49.042Z,6.50
2022-08-26T09:39:37.902Z,6.97
2022-08-26T09:42:11.716Z,6.70
2022-08-26T09:45:08.365Z,6.37
2022-08-26T09:48:04.954Z,6.50
2022-08-26T09:50:54.608Z,6.40
2022-08-26T09:53:31.834Z,5.63
2022-08-26T09:56:25.456Z,6.00
2022-08-26T09:58:56.583Z,5.23
2022-08-26T10:01:23.295Z,5.20
2022-08-26T10:03:51.367Z,5.20
2022-08-26T10:06:18.153Z,5.80
2022-08-26T10:08:54.594Z,4.97
2022-08-26T10:11:44.014Z,4.80
2022-08-26T10:14:25.078Z,5.10
2022-08-26T10:17:02.191Z,5.30
2022-08-26T10:19:55.667Z,4.80
2022-08-26T10:22:58.626Z,4.70
2022-08-26T10:25:37.849Z,4.73
2022-08-26T10:28:42.380Z,4.77
2022-08-26T10:31:38.265Z,4.90
2022-08-26T10:34:08.563Z,5.40
2022-08-26T10:40:02.591Z,6.30
2022-08-26T10:42:37.449Z,5.67
2022-08-26T10:45:25.081Z,5.50
2022-08-26T10:48:05.235Z,5.23
2022-08-26T10:50:37.470Z,5.37
2022-08-26T10:53:34.081Z,4.90
2022-08-26T10:56:47.130Z,4.53
2022-08-26T10:59:53.859Z,4.70
2022-08-26T11:02:40.101Z,4.63
2022-08-26T11:05:23.356Z,3.70
2022-08-26T11:08:20.584Z,4.43
2022-08-26T11:10:59.252Z,4.13
2022-08-26T11:13:57.414Z,4.20
2022-08-26T11:16:56.803Z,3.73
2022-08-26T11:19:45.332Z,3.93
2022-08-26T11:22:37.938Z,4.07
2022-08-26T11:25:18.276Z,5.13
2022-08-26T11:27:48.007Z,4.67
2022-08-26T11:30:15.771Z,4.43
2022-08-26T11:32:56.113Z,4.30
2022-08-26T11:35:25.427Z,4.17
2022-08-26T11:37:58.552Z,4.70
2022-08-26T11:40:40.462Z,4.73
2022-08-26T11:43:18.753Z,5.20
2022-08-26T11:46:09.073Z,4.60
2022-08-26T11:48:42.907Z,4.23
2022-08-26T11:51:24.480Z,4.67
2022-08-26T11:53:51.598Z,5.37
2022-08-26T11:56:33.102Z,5.90
2022-08-26T11:59:04.118Z,5.37
2022-08-26T12:01:37.846Z,5.57
2022-08-26T12:04:08.181Z,5.80
2022-08-26T12:06:43.414Z,5.30
2022-08-26T12:09:25.142Z,5.20
2022-08-26T12:11:54.031Z,5.63
2022-08-26T12:14:27.676Z,5.50
2022-08-26T12:16:55.095Z,5.83
2022-08-26T12:19:27.380Z,5.20
2022-08-26T12:22:23.981Z,5.90
2022-08-26T12:25:05.871Z,4.93
2022-08-26T12:27:41.436Z,4.70
2022-08-26T12:30:22.820Z,5.30
2022-08-26T12:33:02.893Z,5.60
2022-08-26T12:35:42.787Z,4.83
2022-08-26T12:38:10.950Z,4.13
2022-08-26T12:40:50.176Z,4.93
2022-08-26T12:43:45.858Z,4.43
2022-08-26T12:46:18.123Z,3.90
2022-08-26T12:48:49.468Z,5.20
2022-08-26T12:51:26.436Z,5.57
2022-08-26T12:53:54.510Z,6.10
2022-08-26T12:56:39.403Z,5.33
2022-08-26T12:59:26.498Z,5.10
2022-08-26T13:01:54.389Z,6.87
2022-08-26T13:04:36.748Z,5.30
2022-08-26T13:07:20.062Z,5.93
2022-08-26T13:09:46.942Z,6.50
2022-08-26T13:12:28.860Z,5.30
2022-08-26T13:14:58.605Z,5.40
2022-08-26T13:17:27.688Z,5.37
2022-08-26T13:19:54.560Z,5.33
2022-08-26T13:22:24.282Z,6.07
2022-08-26T13:24:55.585Z,5.07
2022-08-26T13:27:26.115Z,4.40
2022-08-26T13:29:54.271Z,4.10
2022-08-26T13:32:22.429Z,2.77
2022-08-26T13:34:56.118Z,2.67
2022-08-26T13:37:24.391Z,3.27
2022-08-26T13:40:02.249Z,2.70
2022-08-26T13:42:29.734Z,2.90
2022-08-26T13:44:57.982Z,3.00
2022-08-26T13:47:25.886Z,2.77
2022-08-26T13:49:55.081Z,3.47
2022-08-26T13:52:30.168Z,4.37
2022-08-26T13:55:00.090Z,3.90
2022-08-26T13:57:28.453Z,4.43
2022-08-26T13:59:57.024Z,4.50
2022-08-26T14:02:23.793Z,5.27
2022-08-26T14:04:50.581Z,4.40
2022-08-26T14:07:17.447Z,5.20
2022-08-26T14:09:44.228Z,5.13
2022-08-26T14:12:11.075Z,5.73
2022-08-26T14:14:37.877Z,5.00
2022-08-26T14:17:04.733Z,4.97
2022-08-26T14:19:31.938Z,5.50
2022-08-26T14:22:00.723Z,5.13
2022-08-26T14:24:28.032Z,5.47
2022-08-26T14:26:54.854Z,3.67
2022-08-26T14:29:21.617Z,3.23
2022-08-26T14:31:48.606Z,3.87
2022-08-26T14:34:15.727Z,3.30
2022-08-26T14:36:43.370Z,3.70
2022-08-26T14:39:13.427Z,4.17
2022-08-26T14:41:54.009Z,4.03
2022-08-26T14:44:26.854Z,4.00
2022-08-26T14:46:54.780Z,4.83
2022-08-26T14:49:24.072Z,3.93
2022-08-26T14:51:50.913Z,4.00
2022-08-26T14:54:19.691Z,4.17
2022-08-26T14:57:09.391Z,4.10
2022-08-26T14:59:43.820Z,4.13
2022-08-26T15:02:30.882Z,4.07
2022-08-26T15:05:02.746Z,4.17
2022-08-26T15:07:29.983Z,4.10
2022-08-26T15:09:56.832Z,4.47
2022-08-26T15:12:24.153Z,4.67
2022-08-26T15:14:51.247Z,4.10
2022-08-26T15:17:18.002Z,4.70
2022-08-26T15:19:44.769Z,4.27
2022-08-26T15:22:11.537Z,4.37
2022-08-26T15:24:38.326Z,4.47
2022-08-26T15:27:05.200Z,4.13
2022-08-26T15:29:31.980Z,4.73
2022-08-26T15:32:03.806Z,4.17
2022-08-26T15:34:31.850Z,4.40
2022-08-26T15:36:58.634Z,4.60
2022-08-26T15:39:25.767Z,4.60
2022-08-26T15:41:52.633Z,5.43
2022-08-26T15:44:19.618Z,5.07
2022-08-26T15:46:49.628Z,5.27
2022-08-26T15:49:18.714Z,5.47
2022-08-26T15:51:47.787Z,5.47
2022-08-26T15:54:17.089Z,5.60
2022-08-26T15:56:45.388Z,5.10
2022-08-26T15:59:14.553Z,5.10
2022-08-26T16:01:43.896Z,5.77
2022-08-26T16:04:11.396Z,5.57
2022-08-26T16:06:41.291Z,5.47
2022-08-26T16:09:09.064Z,5.23
2022-08-26T16:11:37.839Z,5.20
2022-08-26T16:14:07.124Z,5.07
2022-08-26T16:16:37.619Z,4.80
2022-08-26T16:19:07.522Z,4.73
2022-08-26T16:21:35.122Z,5.10
2022-08-26T16:24:03.210Z,4.70
2022-08-26T16:26:37.166Z,6.03
2022-08-26T16:29:09.405Z,5.77
2022-08-26T16:31:38.215Z,4.80
2022-08-26T16:34:06.936Z,5.33
2022-08-26T16:36:35.614Z,5.63
2022-08-26T16:39:03.998Z,5.33
2022-08-26T16:41:31.466Z,5.50
2022-08-26T16:43:59.368Z,5.43
2022-08-26T16:46:28.254Z,5.20
2022-08-26T16:48:57.407Z,5.27
2022-08-26T16:51:27.311Z,5.07
2022-08-26T16:53:56.523Z,5.17
2022-08-26T16:56:27.692Z,5.67
2022-08-26T16:59:03.989Z,5.27
2022-08-26T17:01:30.794Z,5.90
2022-08-26T17:03:57.641Z,5.17
2022-08-26T17:06:24.642Z,4.90
2022-08-26T17:08:52.367Z,5.17
2022-08-26T17:11:19.511Z,5.83
2022-08-26T17:13:46.279Z,5.20
2022-08-26T17:16:13.939Z,5.83
2022-08-26T17:18:40.939Z,5.50
2022-08-26T17:21:10.925Z,6.10
2022-08-26T17:23:39.449Z,5.53
2022-08-26T17:26:06.691Z,5.57
2022-08-26T17:28:33.660Z,5.83
2022-08-26T17:31:01.182Z,5.10
2022-08-26T17:33:28.453Z,5.57
2022-08-26T17:35:55.960Z,5.47
2022-08-26T17:38:23.519Z,5.17
2022-08-26T17:40:50.901Z,5.57
2022-08-26T17:43:18.464Z,5.50
2022-08-26T17:45:45.614Z,5.90
2022-08-26T17:48:12.987Z,5.73
2022-08-26T17:50:42.077Z,5.53
2022-08-26T17:53:12.612Z,5.43
2022-08-26T17:55:45.677Z,5.10
2022-08-26T17:58:14.737Z,5.27
2022-08-26T18:00:49.934Z,5.70
2022-08-26T18:03:17.669Z,6.03
2022-08-26T18:05:49.277Z,6.10
2022-08-26T18:08:16.159Z,6.47
2022-08-26T18:10:44.125Z,6.20
2022-08-26T18:13:11.789Z,7.03
2022-08-26T18:15:39.977Z,6.63
2022-08-26T18:18:07.029Z,7.27
2022-08-26T18:20:34.598Z,5.83
2022-08-26T18:23:01.370Z,7.10
2022-08-26T18:25:28.189Z,7.27
2022-08-26T18:27:54.970Z,6.97
2022-08-26T18:30:22.780Z,6.37
2022-08-26T18:32:51.342Z,6.80
2022-08-26T18:35:21.231Z,6.70
2022-08-26T18:37:48.371Z,6.70
2022-08-26T18:40:16.326Z,6.23
2022-08-26T18:42:43.889Z,7.13
2022-08-26T18:45:16.070Z,7.17
2022-08-26T18:47:43.875Z,7.03
2022-08-26T18:50:11.317Z,7.43
2022-08-26T18:52:40.077Z,6.67
2022-08-26T18:55:07.538Z,7.07
2022-08-26T18:57:34.492Z,6.93
2022-08-26T19:00:02.708Z,6.83
2022-08-26T19:02:30.600Z,6.77
2022-08-26T19:04:57.488Z,6.83
2022-08-26T19:07:24.410Z,7.10
2022-08-26T19:09:54.295Z,6.53
2022-08-26T19:12:21.648Z,6.10
2022-08-26T19:14:48.634Z,6.60
2022-08-26T19:17:15.875Z,7.27
2022-08-26T19:19:42.682Z,7.53
2022-08-26T19:22:11.138Z,7.60
2022-08-26T19:24:38.058Z,6.70
2022-08-26T19:27:05.297Z,7.80
2022-08-26T19:29:35.767Z,7.77
2022-08-26T19:32:04.430Z,6.80
2022-08-26T19:34:31.604Z,6.73
2022-08-26T19:36:58.439Z,6.97
2022-08-26T19:39:26.646Z,6.20
2022-08-26T19:41:53.823Z,6.57
2022-08-26T19:44:43.146Z,6.63
2022-08-26T19:47:11.906Z,6.93
2022-08-26T19:49:38.977Z,6.17
2022-08-26T19:52:06.244Z,6.73
2022-08-26T19:54:35.075Z,6.70
2022-08-26T19:57:01.937Z,6.97
2022-08-26T19:59:29.222Z,6.63
2022-08-26T20:02:00.558Z,6.67
2022-08-26T20:04:30.618Z,6.83
2022-08-26T20:07:00.540Z,7.43
2022-08-26T20:09:29.642Z,7.00
2022-08-26T20:11:57.007Z,6.53
2022-08-26T20:14:25.540Z,6.90
2022-08-26T20:16:52.482Z,6.57
2022-08-26T20:19:38.266Z,6.57
2022-08-26T20:22:05.951Z,6.50
2022-08-26T20:24:34.143Z,6.90
2022-08-26T20:27:06.865Z,6.10
2022-08-26T20:29:35.240Z,6.50
2022-08-26T20:32:02.596Z,6.73
2022-08-26T20:34:30.023Z,6.47
2022-08-26T20:36:56.796Z,6.83
2022-08-26T20:39:23.725Z,7.30
2022-08-26T20:41:50.755Z,7.23
2022-08-26T20:44:17.738Z,7.50
2022-08-26T20:46:45.016Z,7.23
2022-08-26T20:49:13.122Z,8.07
2022-08-26T20:51:41.159Z,10.03
2022-08-26T20:54:08.105Z,11.63
2022-08-26T20:56:35.575Z,13.03
2022-08-26T20:59:05.436Z,14.93
2022-08-26T21:01:35.180Z,13.80
2022-08-26T21:04:06.298Z,13.47
2022-08-26T21:06:34.444Z,12.03
2022-08-26T21:09:05.091Z,10.93
2022-08-26T21:11:32.932Z,10.23
2022-08-26T21:14:17.152Z,10.23
2022-08-26T21:16:45.827Z,9.63
2022-08-26T21:19:17.903Z,9.57
2022-08-26T21:21:47.241Z,9.80
2022-08-26T21:24:14.332Z,9.37
2022-08-26T21:26:41.556Z,9.33
2022-08-26T21:29:11.043Z,9.00
2022-08-26T21:31:44.896Z,9.37
2022-08-26T21:34:14.475Z,9.20
2022-08-26T21:36:41.828Z,9.40
2022-08-26T21:39:11.819Z,10.17
2022-08-26T21:41:42.147Z,10.07
2022-08-26T21:44:10.999Z,9.13
2022-08-26T21:46:38.475Z,9.93
2022-08-26T21:49:08.644Z,9.07
2022-08-26T21:51:43.079Z,9.20
2022-08-26T21:54:11.665Z,9.10
2022-08-26T21:56:46.471Z,8.27
2022-08-26T21:59:16.555Z,7.93
2022-08-26T22:01:43.417Z,8.17
2022-08-26T22:04:10.994Z,7.50
2022-08-26T22:06:48.635Z,7.67
2022-08-26T22:09:19.899Z,7.40
2022-08-26T22:11:47.285Z,8.00
2022-08-26T22:14:16.553Z,7.13
2022-08-26T22:16:50.406Z,7.03
2022-08-26T22:19:19.862Z,6.67
2022-08-26T22:21:50.000Z,7.40
2022-08-26T22:24:22.613Z,7.13
2022-08-26T22:26:49.947Z,7.13
2022-08-26T22:29:20.089Z,7.10
2022-08-26T22:31:47.135Z,7.00
2022-08-26T22:34:17.158Z,6.63
2022-08-26T22:36:47.985Z,7.30
2022-08-26T22:39:19.964Z,7.67
2022-08-26T22:41:48.603Z,7.27
2022-08-26T22:44:17.446Z,7.57
2022-08-26T22:46:45.170Z,6.90
2022-08-26T22:49:17.623Z,7.67
2022-08-26T22:51:45.985Z,7.00
2022-08-26T22:54:14.940Z,7.03
2022-08-26T22:56:42.701Z,7.67
2022-08-26T22:59:10.892Z,7.10
2022-08-26T23:01:42.297Z,7.20
2022-08-26T23:04:10.880Z,7.53
2022-08-26T23:06:41.823Z,7.37
2022-08-26T23:09:09.267Z,7.33
2022-08-26T23:11:38.473Z,7.57
2022-08-26T23:14:08.977Z,7.27
2022-08-26T23:16:39.331Z,7.70
2022-08-26T23:19:10.588Z,7.67
2022-08-26T23:21:38.344Z,7.83
2022-08-26T23:24:06.952Z,7.73
2022-08-26T23:26:35.232Z,7.70
2022-08-26T23:29:03.185Z,8.37
2022-08-26T23:31:30.202Z,8.70
2022-08-26T23:34:15.721Z,8.27
2022-08-26T23:36:44.736Z,8.17
2022-08-26T23:39:14.043Z,7.93
2022-08-26T23:41:42.541Z,8.63
2022-08-26T23:44:12.259Z,8.17
2022-08-26T23:46:39.650Z,8.33
2022-08-26T23:49:06.746Z,8.03
2022-08-26T23:51:52.501Z,7.77
2022-08-26T23:54:21.064Z,8.83
2022-08-26T23:56:48.134Z,7.53
2022-08-26T23:59:15.482Z,7.93
